HYL weather

Hollis Clark Bay Seaplane Base
Hollis, Alaska, United States

Public forecast

Using degrees Fahrenheit for public forecast. Weather courtesy of forecast.io.

METAR (pilot weather report)

Report is more than 2 hours old.

Closest report is Klawock Airport, 15.7 nm (29.2 km) WNW. Retrieved 2019/05/24 06:53 UTC (3 hours ago):

PAKW 240653Z AUTO 22003KT 10SM OVC021 08/07 A3017 RMK SLP218 T00830067 TSNO VIA AUTODIAL

TAF (pilot weather forecast)

Closest forecast is Klawock Airport, 15.7 nm (29.2 km) WNW. Retrieved 2019/05/24 06:24 UTC (4 hours ago):

TAF PAKW 240522Z 2406/2506 23005KT P6SM BKN015 OVC030 FM241500 24007KT P6SM SCT015 BKN025 OVC050 FM242100 24011KT P6SM VCSH SCT025 BKN035 OVC050 FM250300 24007KT P6SM BKN035 BKN080 AMD LTD TO CLD VIS AND WIND